Latest Weather Observations for Ulladulla

IDN60901

Issued at 4:41 pm EST Thursday 28 July 2016 (issued every 10 minutes, with the page automatically refreshed every 10 minutes)

About weather observations | Map of Canberra area stations | Latest observations for Canberra area | Other Formats
Station Details ID: 069138 Name: ULLADULLA AWS Lat: -35.36 Lon: 150.48 Height: 35.7 m
Data from the previous 72 hours. | See also: Recent months at Ulladulla
Date/Time
EST
Temp
°C
App
Temp
°C
Dew
Point
°C
Rel
Hum
%
Delta-T
°C
Wind Press
QNH
hPa
Press
MSL
hPa
Rain since
9am
mm
Dir  Spd
km/h
Gust
km/h
Spd
kts
Gust
kts
28/04:30pm 16.1 13.2 4.5 46 5.4 NW 9 17 5 9 1019.5 1019.5 0.0
28/04:00pm 16.9 15.9 7.5 54 4.7 N 2 6 1 3 1019.4 1019.4 0.0
28/03:30pm 16.2 14.7 6.9 54 4.6 N 4 7 2 4 1019.4 1019.4 0.0
28/03:00pm 17.8 14.5 4.4 41 6.3 W 11 19 6 10 1019.3 1019.3 0.0
28/02:30pm 17.6 14.2 4.2 41 6.3 W 11 22 6 12 1019.5 1019.5 0.0
28/02:00pm 17.9 15.3 4.1 40 6.5 W 7 15 4 8 1019.6 1019.6 0.0
28/01:30pm 17.1 14.8 5.7 47 5.5 N 7 13 4 7 1019.7 1019.7 0.0
28/01:00pm 16.6 14.4 5.3 47 5.4 SW 6 7 3 4 1020.2 1020.2 0.0
28/12:30pm 15.6 13.6 6.9 56 4.3 SSE 7 9 4 5 1020.6 1020.6 0.0
28/12:00pm 16.0 14.0 6.2 52 4.7 NNW 6 13 3 7 1021.2 1021.3 0.0
28/11:30am 15.1 11.9 5.0 51 4.8 N 11 17 6 9 1021.6 1021.7 0.0
28/11:00am 14.8 12.4 5.3 53 4.5 NNE 7 11 4 6 1022.3 1022.4 0.0
28/10:30am 15.0 12.9 6.0 55 4.3 NNE 6 9 3 5 1022.2 1022.3 0.0
28/10:00am 14.9 12.3 4.0 48 5.0 NW 7 11 4 6 1022.5 1022.6 0.0
28/09:30am 14.1 11.0 3.6 49 4.8 WNW 9 15 5 8 1022.4 1022.5 0.0
28/09:00am 13.1 9.5 2.9 50 4.5 WNW 11 22 6 12 1022.2 1022.3 0.0
28/08:30am 12.4 8.9 3.4 54 4.0 NW 11 17 6 9 1022.4 1022.5 0.0
28/08:00am 11.3 7.7 3.1 57 3.6 NW 11 19 6 10 1022.2 1022.3 0.0
28/07:30am 10.4 7.2 3.0 60 3.2 NW 9 17 5 9 1022.1 1022.2 0.0
28/07:00am 10.0 6.8 2.8 61 3.1 W 9 19 5 10 1021.9 1022.0 0.0
28/06:30am 10.0 6.8 2.8 61 3.1 W 9 13 5 7 1021.6 1021.7 0.0
28/06:00am 10.2 7.0 2.8 60 3.2 W 9 17 5 9 1021.3 1021.4 0.0
28/05:30am 10.4 6.8 2.7 59 3.3 W 11 19 6 10 1020.8 1020.8 0.0
28/05:00am 10.4 6.8 3.0 60 3.2 WNW 11 19 6 10 1020.4 1020.4 0.0
28/04:30am 8.6 6.5 3.8 72 2.1 WNW 4 9 2 5 1020.0 1020.0 0.0
28/04:00am 8.2 6.4 3.3 71 2.1 NE 2 2 1 1 1019.7 1019.7 0.0
28/03:30am 9.5 7.0 3.7 67 2.5 WNW 6 9 3 5 1019.5 1019.5 0.0
28/03:00am 9.4 6.9 4.0 69 2.4 NW 6 11 3 6 1019.5 1019.5 0.0
28/02:30am 9.1 6.6 3.7 69 2.3 N 6 7 3 4 1019.5 1019.5 0.0
28/02:00am 10.1 7.5 4.0 66 2.7 NW 7 13 4 7 1019.4 1019.4 0.0
28/01:30am 11.4 8.9 4.6 63 3.1 W 7 13 4 7 1019.7 1019.7 0.0
28/01:00am 11.5 8.2 4.7 63 3.1 WNW 11 17 6 9 1019.5 1019.5 0.0
28/12:30am 11.7 7.7 4.7 62 3.2 WNW 15 24 8 13 1019.5 1019.5 0.0
28/12:00am 11.7 7.7 4.9 63 3.1 WNW 15 24 8 13 1019.5 1019.5 0.0
 
Date/Time
EST
Temp
°C
App
Temp
°C
Dew
Point
°C
Rel
Hum
%
Delta-T
°C
Wind Press
QNH
hPa
Press
MSL
hPa
Rain since
9am
mm
Dir  Spd
km/h
Gust
km/h
Spd
kts
Gust
kts
27/11:30pm 11.9 7.5 4.9 62 3.2 WNW 17 28 9 15 1019.6 1019.6 0.0
27/11:00pm 11.9 8.2 4.6 61 3.3 WNW 13 28 7 15 1019.5 1019.5 0.0
27/10:30pm 12.0 7.9 4.5 60 3.4 W 15 22 8 12 1019.0 1019.0 0.0
27/10:00pm 12.2 8.0 3.9 57 3.7 W 15 28 8 15 1018.7 1018.7 0.0
27/09:30pm 12.5 7.9 3.7 55 3.9 W 17 32 9 17 1018.1 1018.1 0.0
27/09:00pm 12.5 8.3 3.7 55 3.9 WNW 15 26 8 14 1018.0 1018.0 0.0
27/08:30pm 12.6 8.0 3.6 54 4.0 W 17 30 9 16 1017.9 1017.9 0.0
27/08:00pm 12.8 8.5 3.5 53 4.2 WNW 15 33 8 18 1017.3 1017.3 0.0
27/07:30pm 13.0 8.3 3.4 52 4.3 WNW 17 30 9 16 1016.4 1016.4 0.0
27/07:00pm 13.3 8.7 3.7 52 4.3 W 17 30 9 16 1015.9 1015.9 0.0
27/06:30pm 13.5 9.3 3.6 51 4.5 W 15 39 8 21 1015.1 1015.1 0.0
27/06:00pm 13.8 9.2 3.9 51 4.5 W 17 35 9 19 1014.5 1014.5 0.0
27/05:30pm 14.2 9.2 3.7 49 4.8 W 19 33 10 18 1013.9 1013.9 0.0
27/05:00pm 14.7 9.7 3.5 47 5.1 W 19 32 10 17 1013.2 1013.2 0.0
27/04:30pm 15.6 10.7 4.3 47 5.3 WNW 19 33 10 18 1012.6 1012.6 0.0
27/04:00pm 16.2 11.8 4.6 46 5.5 WNW 17 30 9 16 1012.3 1012.3 0.0
27/03:30pm 16.6 11.7 4.3 44 5.8 WNW 19 33 10 18 1011.8 1011.8 0.0
27/03:00pm 16.9 12.4 4.3 43 5.9 WNW 17 33 9 18 1011.5 1011.5 0.0
27/02:30pm 17.4 14.2 5.0 44 5.9 WNW 11 19 6 10 1011.2 1011.2 0.0
27/02:00pm 17.1 12.2 4.1 42 6.1 WNW 19 30 10 16 1011.0 1011.0 0.0
27/01:30pm 17.3 13.2 4.3 42 6.1 W 15 28 8 15 1010.7 1010.7 0.0
27/01:00pm 17.2 13.0 3.8 41 6.3 W 15 32 8 17 1010.7 1010.7 0.0
27/12:30pm 17.2 13.2 4.9 44 5.9 WSW 15 26 8 14 1010.7 1010.7 0.0
27/12:00pm 16.6 12.6 4.9 46 5.6 W 15 28 8 15 1010.9 1010.9 0.0
27/11:30am 15.9 11.0 4.3 46 5.4 W 19 37 10 20 1010.7 1010.7 0.0
27/11:00am 15.7 11.2 4.4 47 5.3 W 17 37 9 20 1010.7 1010.7 0.0
27/10:30am 14.7 11.3 4.1 49 4.9 WNW 11 20 6 11 1010.8 1010.8 0.0
27/10:00am 13.9 10.3 4.8 54 4.2 WNW 13 26 7 14 1010.8 1010.8 0.0
27/09:30am 13.5 10.2 4.6 55 4.1 W 11 30 6 16 1010.5 1010.5 0.0
27/09:00am 13.8 10.5 4.4 53 4.3 W 11 24 6 13 1009.6 1009.6 0.0
27/08:30am 12.7 9.0 4.2 56 3.9 W 13 30 7 16 1009.2 1009.2 0.0
27/08:00am 13.6 9.8 3.7 51 4.5 NW 13 32 7 17 1007.9 1007.9 0.0
27/07:30am 13.0 10.7 4.9 58 3.7 N 6 15 3 8 1008.1 1008.1 0.0
27/07:00am 12.9 8.5 4.6 57 3.8 NNW 17 35 9 19 1008.1 1008.1 0.0
27/06:30am 11.9 8.2 4.4 60 3.4 NW 13 24 7 13 1008.1 1008.1 0.0
27/06:00am 10.1 8.4 3.8 65 2.8 W 2 7 1 4 1008.5 1008.5 0.0
27/05:30am 11.1 8.4 3.9 61 3.2 SW 7 24 4 13 1008.6 1008.6 0.0
27/05:00am 11.1 9.0 3.9 61 3.2 W 4 13 2 7 1008.3 1008.3 0.0
27/04:30am 10.2 8.6 4.4 67 2.6 SE 2 6 1 3 1008.4 1008.4 0.0
27/04:00am 10.4 7.9 3.7 63 3.0 SSW 6 9 3 5 1008.8 1008.8 0.0
27/03:30am 10.3 7.6 3.8 64 2.9 SSE 7 13 4 7 1008.8 1008.8 0.0
27/03:00am 9.7 6.8 1.4 56 3.4 NW 6 7 3 4 1009.2 1009.2 0.0
27/02:30am 10.8 8.3 1.6 53 3.9 NNW 4 15 2 8 1010.1 1010.1 0.0
27/02:00am 9.7 7.6 1.6 57 3.4 SW 2 7 1 4 1010.0 1010.0 0.0
27/01:30am 10.5 8.1 2.1 56 3.6 SSW 4 9 2 5 1010.3 1010.3 0.0
27/01:00am 9.9 7.3 1.0 54 3.7 WSW 4 9 2 5 1010.4 1010.4 0.0
27/12:30am 9.8 6.8 0.9 54 3.6 W 6 9 3 5 1010.8 1010.8 0.0
27/12:00am 10.0 7.1 1.4 55 3.6 NNW 6 13 3 7 1011.1 1011.1 0.0
 
Date/Time
EST
Temp
°C
App
Temp
°C
Dew
Point
°C
Rel
Hum
%
Delta-T
°C
Wind Press
QNH
hPa
Press
MSL
hPa
Rain since
9am
mm
Dir  Spd
km/h
Gust
km/h
Spd
kts
Gust
kts
26/11:30pm 10.6 7.6 1.9 55 3.7 WNW 7 20 4 11 1011.4 1011.4 0.0
26/11:00pm 9.1 7.1 2.4 63 2.8 W 2 9 1 5 1012.0 1012.0 0.0
26/10:30pm 8.8 7.2 2.2 63 2.8 CALM 0 6 0 3 1012.4 1012.4 0.0
26/10:00pm 8.9 6.8 1.6 60 3.0 NW 2 6 1 3 1012.5 1012.5 0.0
26/09:30pm 10.3 7.8 1.7 55 3.6 NW 4 11 2 6 1012.9 1012.9 0.0
26/09:00pm 10.2 7.9 0.5 51 4.0 NNW 2 6 1 3 1013.1 1013.1 0.0
26/08:30pm 11.4 8.4 0.8 48 4.4 NNW 6 11 3 6 1013.3 1013.3 0.0
26/08:00pm 11.3 8.7 0.7 48 4.4 NNW 4 9 2 5 1013.3 1013.3 0.0
26/07:30pm 11.2 8.2 0.6 48 4.4 NW 6 13 3 7 1013.4 1013.4 0.0
26/07:00pm 11.5 8.9 0.9 48 4.4 NW 4 9 2 5 1013.6 1013.6 0.0
26/06:30pm 11.4 8.3 0.2 46 4.6 NW 6 15 3 8 1013.5 1013.5 0.0
26/06:00pm 11.5 8.2 0.3 46 4.6 NW 7 17 4 9 1013.2 1013.2 0.0
26/05:30pm 11.2 8.1 0.0 46 4.6 NW 6 9 3 5 1012.9 1012.9 0.0
26/05:00pm 11.8 8.7 0.0 44 4.8 NW 6 9 3 5 1012.5 1012.5 0.0
26/04:30pm 13.3 8.4 -0.7 38 5.7 NW 15 24 8 13 1012.1 1012.1 0.0
26/04:00pm 13.8 9.3 -0.6 37 5.9 NW 13 26 7 14 1012.0 1012.0 0.0
26/03:30pm 14.2 8.6 0.1 38 5.9 NW 19 30 10 16 1012.2 1012.2 0.0
26/03:00pm 14.7 9.4 -0.6 35 6.4 WNW 17 26 9 14 1012.1 1012.1 0.0
26/02:30pm 14.9 10.0 -0.4 35 6.4 NW 15 24 8 13 1011.9 1011.9 0.0
26/02:00pm 15.2 9.9 -0.9 33 6.7 WNW 17 30 9 16 1012.0 1012.0 0.0
26/01:30pm 15.1 9.7 -1.0 33 6.7 WNW 17 30 9 16 1012.4 1012.4 0.0
26/01:00pm 14.6 7.8 -1.5 33 6.6 NW 24 39 13 21 1012.1 1012.1 0.0
26/12:30pm 14.7 8.0 -1.0 34 6.5 NW 24 35 13 19 1012.5 1012.5 0.0
26/12:00pm 15.1 10.8 -1.5 32 6.8 WNW 11 24 6 13 1013.0 1013.0 0.0
26/11:30am 14.4 7.7 -1.2 34 6.4 NW 24 39 13 21 1013.3 1013.3 0.0
26/11:00am 14.5 8.7 -1.2 34 6.4 WNW 19 32 10 17 1013.3 1013.3 0.0
26/10:30am 14.1 8.2 -1.9 33 6.4 NW 19 35 10 19 1013.6 1013.6 0.0
26/10:00am 14.0 10.2 2.0 44 5.2 W 11 22 6 12 1013.9 1013.9 0.0
26/09:30am 13.3 8.9 2.5 48 4.7 WNW 15 32 8 17 1013.8 1013.8 0.0
26/09:00am 12.7 7.3 1.4 46 4.8 W 19 43 10 23 1013.6 1013.6 0.0
26/08:30am 12.5 7.1 1.5 47 4.7 W 19 39 10 21 1013.0 1013.0 0.0
26/08:00am 12.0 7.8 1.6 49 4.4 WSW 13 26 7 14 1012.6 1012.6 0.0
26/07:30am 11.5 7.0 2.3 53 4.0 WSW 15 33 8 18 1012.2 1012.2 0.0
26/07:00am 11.4 6.2 2.7 55 3.8 WSW 19 35 10 19 1011.5 1011.5 0.0
26/06:30am 11.6 8.0 2.9 55 3.8 WSW 11 33 6 18 1010.9 1010.9 0.0
26/06:00am 12.0 7.3 3.3 55 3.9 W 17 32 9 17 1010.5 1010.5 0.0
26/05:30am 12.2 8.4 3.9 57 3.7 WNW 13 30 7 16 1009.5 1009.5 0.0
26/05:00am 12.4 7.3 4.1 57 3.8 WNW 20 48 11 26 1009.4 1009.4 0.0
26/04:30am 12.1 9.1 3.9 57 3.7 WNW 9 19 5 10 1008.9 1008.9 0.0
26/04:00am 12.4 7.7 3.4 54 4.0 W 17 39 9 21 1008.7 1008.7 0.0
26/03:30am 12.6 9.8 3.0 52 4.2 WNW 7 15 4 8 1008.2 1008.2 0.0
26/03:00am 12.9 8.2 3.0 51 4.4 NW 17 33 9 18 1008.2 1008.2 0.0
26/02:30am 12.9 6.9 3.3 52 4.3 NW 24 46 13 25 1008.4 1008.4 0.0
26/02:00am 12.7 7.7 3.4 53 4.2 NW 19 35 10 19 1008.3 1008.3 0.0
26/01:30am 12.4 8.8 2.8 52 4.2 NW 11 32 6 17 1008.6 1008.6 0.0
26/01:00am 12.4 8.8 2.8 52 4.2 NW 11 32 6 17 1008.6 1008.6 0.0
26/12:30am 12.2 8.9 2.4 51 4.3 NNW 9 15 5 8 1008.7 1008.7 0.0
26/12:00am 12.2 8.0 1.5 48 4.6 NW 13 24 7 13 1009.0 1009.0 0.0
 
Date/Time
EST
Temp
°C
App
Temp
°C
Dew
Point
°C
Rel
Hum
%
Delta-T
°C
Wind Press
QNH
hPa
Press
MSL
hPa
Rain since
9am
mm
Dir  Spd
km/h
Gust
km/h
Spd
kts
Gust
kts
25/11:30pm 12.1 8.3 1.7 49 4.4 NW 11 28 6 15 1009.4 1009.4 0.0
25/11:00pm 11.1 8.7 1.9 53 3.9 NW 4 15 2 8 1009.3 1009.3 0.0
25/10:30pm 9.9 7.5 2.0 58 3.3 SE 4 7 2 4 1009.7 1009.7 0.0
25/10:00pm 11.1 8.3 2.2 54 3.8 W 6 17 3 9 1009.7 1009.7 0.0
25/09:30pm 11.2 8.5 2.5 55 3.8 NNW 6 9 3 5 1009.8 1009.8 0.0
25/09:00pm 12.0 7.3 3.0 54 4.0 NW 17 30 9 16 1009.9 1009.9 0.0
25/08:30pm 12.0 7.3 3.0 54 4.0 NW 17 28 9 15 1010.1 1010.1 0.0
25/08:00pm 12.0 7.7 3.5 56 3.8 NW 15 28 8 15 1010.1 1010.1 0.0
25/07:30pm 10.5 8.3 3.5 62 3.1 N 4 9 2 5 1010.2 1010.2 0.0
25/07:00pm 11.9 9.9 4.2 59 3.5 NNE 4 7 2 4 1010.2 1010.2 0.0
25/06:30pm 12.6 9.5 3.8 55 4.0 N 9 19 5 10 1009.9 1009.9 0.0
25/06:00pm 12.3 8.1 3.8 56 3.8 NW 15 22 8 12 1009.8 1009.8 0.0
25/05:30pm 12.5 8.6 3.2 53 4.1 NW 13 20 7 11 1009.8 1009.8 0.0
25/05:00pm 12.8 8.8 2.9 51 4.4 WNW 13 33 7 18 1010.0 1010.0 0.0

Latest Capital City Observations: Canberra | Sydney | Melbourne | Brisbane | Adelaide | Perth | Hobart | Darwin

Other Formats:

Comma delimited format used in spreadsheet applications
http://www.bom.gov.au/fwo/IDN60903/IDN60903.94938.axf

JavaScript Object Notation format (JSON) in row-major order
http://www.bom.gov.au/fwo/IDN60903/IDN60903.94938.json